»·PEaware :: N6065L KSNA-KCRQ

N6065L :: KSNA-KCRQ

FLIGHT INFORMATION

Flight Status: Arrived
Operator: Privately registered:
United States
More flights under this callsign
Pilot: Charlie W. (23436)
Aircraft: CESSNA 172 SKYHAWK
(C172)
More flights by this aircraft type
Origin: KSNA John Wayne-Orange Co
United States
Destination: KCRQ McClellan-Palomar
United States
More flights between these airports :: More routes between these airports
Route: +V23 OCN
File this flight plan on PilotEdge
Remarks: REQ I-2 Checkride. N6065L
Altitude:
(Current/Filed)
5,000ft
Speed:
(Current/Filed)
115kts
Departed: 10-Feb-19 02:26 PM
Arrived: 10-Feb-19 03:14 PM
Distance/Time
Traveled:
44nm/0:47
Distance/Time
To Go:
Arrived

Flight Plot

Page will automatically refresh every two minutes.


Map Options




Map Legend


Flown Route
Filed Route
Departure Airport
Arrival Airport
Navaid (VOR, NDB)
Fix

Horizontal Profiles

Position Reports

Time Latitude Longitude Heading Altitude Ground
Speed
10-Feb-19 13:55 33.676080 -117.870909 219 60ft 0kts
10-Feb-19 13:56 33.676080 -117.870909 219 60ft 0kts
10-Feb-19 13:57 33.676080 -117.870909 219 60ft 0kts
10-Feb-19 13:58 33.676080 -117.870909 219 60ft 0kts
10-Feb-19 13:59 33.676080 -117.870909 219 60ft 0kts
10-Feb-19 14:00 33.676080 -117.870909 219 60ft 0kts
10-Feb-19 14:01 33.676080 -117.870909 219 60ft 0kts
10-Feb-19 14:02 33.676080 -117.870909 219 60ft 0kts
10-Feb-19 14:03 33.676080 -117.870909 219 60ft 0kts
10-Feb-19 14:04 33.676080 -117.870909 219 60ft 0kts
10-Feb-19 14:05 33.676080 -117.870909 219 60ft 0kts
10-Feb-19 14:06 33.676080 -117.870909 219 60ft 0kts
10-Feb-19 14:07 33.676080 -117.870909 219 60ft 0kts
10-Feb-19 14:08 33.676080 -117.870909 219 60ft 0kts
10-Feb-19 14:09 33.676080 -117.870909 219 60ft 0kts
10-Feb-19 14:09 33.676080 -117.870909 219 60ft 0kts
10-Feb-19 14:11 33.676080 -117.870909 219 60ft 0kts
10-Feb-19 14:12 33.676080 -117.870909 219 60ft 0kts
10-Feb-19 14:13 33.676080 -117.870909 219 60ft 0kts
10-Feb-19 14:13 33.676080 -117.870909 219 60ft 0kts
10-Feb-19 14:14 33.676080 -117.870909 219 60ft 0kts
10-Feb-19 14:16 33.676080 -117.870909 219 60ft 0kts
10-Feb-19 14:17 33.676080 -117.870909 219 60ft 0kts
10-Feb-19 14:17 33.676080 -117.870909 219 60ft 0kts
10-Feb-19 14:18 33.676080 -117.870909 219 60ft 0kts
10-Feb-19 14:19 33.676080 -117.870909 219 60ft 0kts
10-Feb-19 14:20 33.676080 -117.870909 219 60ft 0kts
10-Feb-19 14:21 33.676994 -117.869477 28 60ft 14kts
10-Feb-19 14:22 33.681264 -117.866614 93 60ft 13kts
10-Feb-19 14:23 33.681202 -117.866414 117 60ft 0kts
10-Feb-19 14:24 33.681116 -117.866206 112 60ft 5kts
10-Feb-19 14:25 33.672726 -117.870558 203 367ft 63kts
10-Feb-19 14:26 33.662169 -117.874998 164 981ft 61kts
10-Feb-19 14:27 33.661029 -117.852539 87 1743ft 79kts
10-Feb-19 14:28 33.649238 -117.841942 187 2512ft 64kts
10-Feb-19 14:29 33.631148 -117.844350 185 3241ft 65kts
10-Feb-19 14:30 33.613497 -117.846011 187 3947ft 64kts
10-Feb-19 14:31 33.596170 -117.842173 125 4570ft 77kts
10-Feb-19 14:32 33.583719 -117.820326 141 4930ft 96kts
10-Feb-19 14:33 33.565478 -117.797721 143 4913ft 91kts
10-Feb-19 14:34 33.547403 -117.776359 145 4916ft 91kts
10-Feb-19 14:35 33.529191 -117.754940 145 4922ft 92kts
10-Feb-19 14:36 33.510636 -117.733120 143 4923ft 94kts
10-Feb-19 14:37 33.491620 -117.710796 143 4924ft 97kts
10-Feb-19 14:38 33.471836 -117.687617 141 4928ft 101kts
10-Feb-19 14:39 33.451288 -117.663556 138 4931ft 105kts
10-Feb-19 14:40 33.430208 -117.638870 136 4940ft 106kts
10-Feb-19 14:41 33.409022 -117.614078 134 4944ft 107kts
10-Feb-19 14:42 33.387504 -117.588917 134 4945ft 107kts
10-Feb-19 14:43 33.365891 -117.563664 134 4945ft 107kts
10-Feb-19 14:44 33.344425 -117.538609 134 4945ft 107kts
10-Feb-19 14:45 33.323066 -117.513695 134 4946ft 107kts
10-Feb-19 14:46 33.301536 -117.488594 134 4946ft 107kts
10-Feb-19 14:47 33.280059 -117.463571 134 4946ft 107kts
10-Feb-19 14:48 33.258631 -117.438636 133 4945ft 107kts
10-Feb-19 14:49 33.241341 -117.411605 84 4945ft 99kts
10-Feb-19 14:50 33.242379 -117.378767 81 4943ft 98kts
10-Feb-19 14:51 33.243522 -117.346030 81 4943ft 98kts
10-Feb-19 14:52 33.244665 -117.312988 81 4943ft 99kts
10-Feb-19 14:53 33.246848 -117.280064 82 4941ft 98kts
10-Feb-19 14:54 33.253183 -117.248471 81 4939ft 96kts
10-Feb-19 14:55 33.259898 -117.217329 81 4938ft 96kts
10-Feb-19 14:56 33.266977 -117.186209 81 4937ft 98kts
10-Feb-19 14:57 33.274522 -117.154280 81 4936ft 99kts
10-Feb-19 14:58 33.282244 -117.122037 81 4935ft 101kts
10-Feb-19 14:59 33.289938 -117.089168 81 4934ft 104kts
10-Feb-19 15:00 33.292804 -117.056081 140 4934ft 94kts
10-Feb-19 15:01 33.268380 -117.046777 170 4675ft 111kts
10-Feb-19 15:02 33.237533 -117.038725 170 4116ft 117kts
10-Feb-19 15:03 33.206076 -117.031063 170 3435ft 106kts
10-Feb-19 15:04 33.183675 -117.047510 220 3436ft 98kts
10-Feb-19 15:05 33.164706 -117.072709 240 3435ft 108kts
10-Feb-19 15:06 33.155848 -117.109691 254 3197ft 122kts
10-Feb-19 15:07 33.149654 -117.147695 255 2552ft 106kts
10-Feb-19 15:08 33.144538 -117.179428 255 2021ft 84kts
10-Feb-19 15:09 33.140463 -117.204556 255 1565ft 79kts
10-Feb-19 15:10 33.136801 -117.227240 255 1155ft 79kts
10-Feb-19 15:11 33.132843 -117.251736 254 718ft 68kts
10-Feb-19 15:12 33.129395 -117.273204 254 316ft 57kts
10-Feb-19 15:13 33.127619 -117.279863 230 309ft 9kts
10-Feb-19 15:14 33.127206 -117.279848 74 309ft 0kts

Navigation Log

Ident Type
Flight plan parsing failed, navigation log unavailable